Apulia Station, New York
Current Conditions -  °F | °C
As of 12:35 PM on Thursday 27 Nov 2014 (Local Time) from KN03 Reporting Station
Light Snow Light Snow  
Wind Chill: -4°   Ceiling: 1200
Heat Index: -1°   Visibility: 1.2mi
Dew Point: -2°   Wind: 5mph
Humidity: 93%   Direction: 270°W
Pressure: 29.99"   Gusts: NA
Location:  42.82°N, 76.07°W
Report Text: KN03 271735Z AUTO 27004KT 1 1/4SM -SN SCT006 BKN012 OVC020 M01/M02 A2999 RMK AO2
Loading
Personal Weather Stations






























Interactive Weather Map New forecast layout! Learn more

10-Day Weather Forecast

Advertisements
Track Severe Weather on mobile